sensor_id;sensor_type;location;lat;lon;timestamp;noise_LAeq;noise_LA_min;noise_LA_max;noise_LA01;noise_LA95
45478;Laerm;31227;47.986;11.868;2022-08-19T01:35:28;41.63;34.69;59.18;;
45478;Laerm;31227;47.986;11.868;2022-08-19T01:40:19;40.45;35.04;50.61;;
45478;Laerm;31227;47.986;11.868;2022-08-19T01:42:45;39.16;34.31;46.73;;
45478;Laerm;31227;47.986;11.868;2022-08-19T01:45:11;40.18;35.04;51.83;;
45478;Laerm;31227;47.986;11.868;2022-08-19T01:47:36;39.68;34.34;52.36;;
45478;Laerm;31227;47.986;11.868;2022-08-19T01:50:03;39.22;33.90;52.14;;
45478;Laerm;31227;47.986;11.868;2022-08-19T01:52:29;39.87;34.69;52.15;;
45478;Laerm;31227;47.986;11.868;2022-08-19T01:54:54;38.90;34.69;46.82;;
45478;Laerm;31227;47.986;11.868;2022-08-19T01:57:19;39.23;34.31;47.67;;
45478;Laerm;31227;47.986;11.868;2022-08-19T01:59:44;38.24;35.04;40.53;;
45478;Laerm;31227;47.986;11.868;2022-08-19T02:02:10;39.28;34.69;47.16;;
45478;Laerm;31227;47.986;11.868;2022-08-19T02:04:35;40.32;35.04;54.23;;
45478;Laerm;31227;47.986;11.868;2022-08-19T02:07:02;38.26;34.31;40.71;;
45478;Laerm;31227;47.986;11.868;2022-08-19T02:09:28;41.21;34.69;54.70;;
45478;Laerm;31227;47.986;11.868;2022-08-19T02:11:53;43.04;34.31;58.21;;
45478;Laerm;31227;47.986;11.868;2022-08-19T02:14:18;39.42;33.90;56.84;;
45478;Laerm;31227;47.986;11.868;2022-08-19T02:16:43;38.23;33.90;40.98;;
45478;Laerm;31227;47.986;11.868;2022-08-19T02:19:09;38.20;33.44;40.71;;
45478;Laerm;31227;47.986;11.868;2022-08-19T03:02:26;41.13;35.04;54.54;;
45478;Laerm;31227;47.986;11.868;2022-08-19T03:04:51;40.42;34.69;52.49;;
45478;Laerm;31227;47.986;11.868;2022-08-19T03:07:16;39.54;33.90;50.57;;
45478;Laerm;31227;47.986;11.868;2022-08-19T03:09:43;42.22;35.36;56.08;;
45478;Laerm;31227;47.986;11.868;2022-08-19T03:12:09;41.76;33.90;57.48;;
45478;Laerm;31227;47.986;11.868;2022-08-19T03:14:34;43.09;33.90;55.94;;
45478;Laerm;31227;47.986;11.868;2022-08-19T03:17:00;39.68;32.93;53.80;;
45478;Laerm;31227;47.986;11.868;2022-08-19T03:19:26;41.24;33.97;53.18;;
45478;Laerm;31227;47.986;11.868;2022-08-19T03:48:38;42.35;35.04;53.06;;
45478;Laerm;31227;47.986;11.868;2022-08-19T03:51:05;45.84;35.36;61.64;;
45478;Laerm;31227;47.986;11.868;2022-08-19T03:53:30;41.43;34.69;51.44;;
45478;Laerm;31227;47.986;11.868;2022-08-19T03:55:56;42.08;35.04;53.99;;
45478;Laerm;31227;47.986;11.868;2022-08-19T03:58:22;42.77;34.31;54.92;;
45478;Laerm;31227;47.986;11.868;2022-08-19T04:00:48;43.80;34.69;60.53;;
45478;Laerm;31227;47.986;11.868;2022-08-19T04:03:13;44.70;35.04;59.68;;
45478;Laerm;31227;47.986;11.868;2022-08-19T04:05:38;45.20;35.66;63.96;;
45478;Laerm;31227;47.986;11.868;2022-08-19T04:08:04;42.89;35.66;52.54;;
45478;Laerm;31227;47.986;11.868;2022-08-19T04:10:30;44.27;35.36;58.50;;
45478;Laerm;31227;47.986;11.868;2022-08-19T04:12:56;43.69;33.90;57.71;;
45478;Laerm;31227;47.986;11.868;2022-08-19T04:15:21;45.58;35.66;58.91;;
45478;Laerm;31227;47.986;11.868;2022-08-19T04:17:46;42.15;35.36;52.51;;
45478;Laerm;31227;47.986;11.868;2022-08-19T04:22:42;45.43;35.94;59.54;;
45478;Laerm;31227;47.986;11.868;2022-08-19T04:25:07;45.97;36.69;60.06;;
45478;Laerm;31227;47.986;11.868;2022-08-19T04:27:33;44.88;36.69;54.81;;
45478;Laerm;31227;47.986;11.868;2022-08-19T04:29:58;43.30;35.36;55.19;;
45478;Laerm;31227;47.986;11.868;2022-08-19T04:32:24;45.82;35.36;55.33;;
45478;Laerm;31227;47.986;11.868;2022-08-19T04:34:49;44.67;35.36;57.86;;
45478;Laerm;31227;47.986;11.868;2022-08-19T04:37:14;46.17;36.20;58.62;;
45478;Laerm;31227;47.986;11.868;2022-08-19T04:39:39;43.38;34.69;56.07;;
45478;Laerm;31227;47.986;11.868;2022-08-19T04:42:23;46.24;35.66;59.22;;
45478;Laerm;31227;47.986;11.868;2022-08-19T04:45:08;46.00;35.66;62.99;;
45478;Laerm;31227;47.986;11.868;2022-08-19T04:47:35;47.16;36.20;65.72;;
45478;Laerm;31227;47.986;11.868;2022-08-19T04:50:01;45.86;35.66;60.27;;
45478;Laerm;31227;47.986;11.868;2022-08-19T04:52:27;42.16;35.04;54.03;;
45478;Laerm;31227;47.986;11.868;2022-08-19T04:54:53;44.07;35.36;52.74;;
45478;Laerm;31227;47.986;11.868;2022-08-19T04:57:20;44.64;35.66;55.20;;
45478;Laerm;31227;47.986;11.868;2022-08-19T04:59:45;44.68;35.66;58.07;;
45478;Laerm;31227;47.986;11.868;2022-08-19T05:02:10;43.39;35.66;55.00;;
45478;Laerm;31227;47.986;11.868;2022-08-19T05:04:36;45.97;37.52;56.11;;
45478;Laerm;31227;47.986;11.868;2022-08-19T05:07:04;45.40;35.94;57.57;;
45478;Laerm;31227;47.986;11.868;2022-08-19T05:09:29;45.69;35.94;55.61;;
45478;Laerm;31227;47.986;11.868;2022-08-19T05:11:54;45.33;37.70;55.92;;
45478;Laerm;31227;47.986;11.868;2022-08-19T05:14:19;46.81;36.91;64.87;;
45478;Laerm;31227;47.986;11.868;2022-08-19T05:16:46;46.43;37.12;71.22;;
45478;Laerm;31227;47.986;11.868;2022-08-19T05:19:11;44.29;36.45;54.12;;
45478;Laerm;31227;47.986;11.868;2022-08-19T05:27:25;46.01;36.69;56.48;;
45478;Laerm;31227;47.986;11.868;2022-08-19T05:29:50;45.03;36.69;56.10;;
45478;Laerm;31227;47.986;11.868;2022-08-19T05:32:15;48.67;38.37;69.93;;
45478;Laerm;31227;47.986;11.868;2022-08-19T05:34:40;47.59;38.37;76.00;;
45478;Laerm;31227;47.986;11.868;2022-08-19T05:37:06;49.69;37.52;74.24;;
45478;Laerm;31227;47.986;11.868;2022-08-19T05:39:33;47.90;37.70;62.81;;
45478;Laerm;31227;47.986;11.868;2022-08-19T05:42:00;55.10;39.34;86.92;;
45478;Laerm;31227;47.986;11.868;2022-08-19T05:44:27;50.38;40.23;75.13;;
45478;Laerm;31227;47.986;11.868;2022-08-19T05:46:56;50.06;40.03;80.42;;
45478;Laerm;31227;47.986;11.868;2022-08-19T05:49:22;48.84;39.46;67.89;;
45478;Laerm;31227;47.986;11.868;2022-08-19T05:51:47;51.02;39.81;63.03;;
45478;Laerm;31227;47.986;11.868;2022-08-19T05:54:13;49.33;39.34;67.22;;
45478;Laerm;31227;47.986;11.868;2022-08-19T05:56:39;55.11;38.67;90.11;;
45478;Laerm;31227;47.986;11.868;2022-08-19T05:59:05;54.75;39.34;87.67;;
45478;Laerm;31227;47.986;11.868;2022-08-19T06:01:33;50.07;39.46;69.45;;
45478;Laerm;31227;47.986;11.868;2022-08-19T06:03:59;50.12;38.52;80.11;;
45478;Laerm;31227;47.986;11.868;2022-08-19T06:06:24;53.98;41.38;71.47;;
45478;Laerm;31227;47.986;11.868;2022-08-19T06:08:50;51.04;38.37;64.06;;
45478;Laerm;31227;47.986;11.868;2022-08-19T06:11:31;49.27;39.92;60.14;;
45478;Laerm;31227;47.986;11.868;2022-08-19T06:14:01;50.71;38.67;83.85;;
45478;Laerm;31227;47.986;11.868;2022-08-19T06:16:27;48.50;39.08;58.82;;
45478;Laerm;31227;47.986;11.868;2022-08-19T06:18:53;52.29;38.95;82.14;;
45478;Laerm;31227;47.986;11.868;2022-08-19T06:21:20;51.79;40.13;83.27;;
45478;Laerm;31227;47.986;11.868;2022-08-19T06:23:45;47.89;39.34;61.50;;
45478;Laerm;31227;47.986;11.868;2022-08-19T06:26:12;51.15;39.81;77.93;;
45478;Laerm;31227;47.986;11.868;2022-08-19T06:28:37;50.73;40.03;71.02;;
45478;Laerm;31227;47.986;11.868;2022-08-19T06:31:12;59.68;39.46;95.63;;
45478;Laerm;31227;47.986;11.868;2022-08-19T06:33:39;49.01;39.81;60.89;;
45478;Laerm;31227;47.986;11.868;2022-08-19T06:36:04;50.67;39.70;62.86;;
45478;Laerm;31227;47.986;11.868;2022-08-19T06:38:29;60.53;39.58;81.82;;
45478;Laerm;31227;47.986;11.868;2022-08-19T06:41:05;48.92;39.70;59.36;;
45478;Laerm;31227;47.986;11.868;2022-08-19T06:43:30;51.20;39.34;83.33;;
45478;Laerm;31227;47.986;11.868;2022-08-19T06:45:56;49.27;40.43;60.86;;
45478;Laerm;31227;47.986;11.868;2022-08-19T06:48:21;48.34;39.08;56.11;;
45478;Laerm;31227;47.986;11.868;2022-08-19T06:50:46;48.69;38.81;59.49;;
45478;Laerm;31227;47.986;11.868;2022-08-19T06:53:15;47.96;38.67;56.81;;
45478;Laerm;31227;47.986;11.868;2022-08-19T06:55:40;48.88;38.81;61.34;;
45478;Laerm;31227;47.986;11.868;2022-08-19T06:58:05;48.53;38.67;55.89;;
45478;Laerm;31227;47.986;11.868;2022-08-19T07:00:31;49.49;39.34;60.91;;
45478;Laerm;31227;47.986;11.868;2022-08-19T07:02:56;48.72;38.47;61.11;;
45478;Laerm;31227;47.986;11.868;2022-08-19T07:05:21;48.30;39.92;57.71;;
45478;Laerm;31227;47.986;11.868;2022-08-19T07:07:47;49.62;40.08;61.82;;
45478;Laerm;31227;47.986;11.868;2022-08-19T07:10:12;47.29;39.08;55.23;;
45478;Laerm;31227;47.986;11.868;2022-08-19T07:12:37;50.82;39.08;67.60;;
45478;Laerm;31227;47.986;11.868;2022-08-19T07:15:04;48.74;38.52;57.97;;
45478;Laerm;31227;47.986;11.868;2022-08-19T07:17:29;47.54;39.68;56.38;;
45478;Laerm;31227;47.986;11.868;2022-08-19T07:19:54;48.04;37.70;63.47;;
45478;Laerm;31227;47.986;11.868;2022-08-19T07:22:20;47.85;39.46;58.36;;
45478;Laerm;31227;47.986;11.868;2022-08-19T07:24:47;46.68;38.37;55.95;;
45478;Laerm;31227;47.986;11.868;2022-08-19T07:27:13;50.08;39.08;61.25;;
45478;Laerm;31227;47.986;11.868;2022-08-19T07:29:38;48.36;38.37;59.05;;
45478;Laerm;31227;47.986;11.868;2022-08-19T07:32:04;47.32;38.81;55.35;;
45478;Laerm;31227;47.986;11.868;2022-08-19T07:34:29;47.39;38.21;56.33;;
45478;Laerm;31227;47.986;11.868;2022-08-19T07:36:55;46.17;37.70;56.27;;
45478;Laerm;31227;47.986;11.868;2022-08-19T07:39:26;47.60;38.21;59.50;;
45478;Laerm;31227;47.986;11.868;2022-08-19T07:41:52;48.54;39.08;61.66;;
45478;Laerm;31227;47.986;11.868;2022-08-19T07:44:18;45.68;37.70;56.28;;
45478;Laerm;31227;47.986;11.868;2022-08-19T07:46:45;48.06;37.88;56.97;;
45478;Laerm;31227;47.986;11.868;2022-08-19T07:49:12;46.65;37.88;60.28;;
45478;Laerm;31227;47.986;11.868;2022-08-19T07:51:42;47.49;38.67;60.69;;
45478;Laerm;31227;47.986;11.868;2022-08-19T07:54:07;45.03;37.88;57.90;;
45478;Laerm;31227;47.986;11.868;2022-08-19T07:56:32;45.93;38.37;55.23;;
45478;Laerm;31227;47.986;11.868;2022-08-19T07:58:58;45.97;38.37;59.75;;
45478;Laerm;31227;47.986;11.868;2022-08-19T08:01:24;48.10;40.23;58.51;;
45478;Laerm;31227;47.986;11.868;2022-08-19T08:03:50;46.28;38.67;60.07;;
45478;Laerm;31227;47.986;11.868;2022-08-19T08:06:35;46.04;39.46;65.64;;
45478;Laerm;31227;47.986;11.868;2022-08-19T08:09:24;48.28;38.52;63.11;;
45478;Laerm;31227;47.986;11.868;2022-08-19T08:11:51;45.00;38.81;53.40;;
45478;Laerm;31227;47.986;11.868;2022-08-19T08:14:23;49.35;39.21;61.34;;
45478;Laerm;31227;47.986;11.868;2022-08-19T08:16:48;46.04;38.05;58.52;;
45478;Laerm;31227;47.986;11.868;2022-08-19T08:19:15;47.59;38.37;57.90;;
45478;Laerm;31227;47.986;11.868;2022-08-19T08:24:15;48.47;37.88;62.67;;
45478;Laerm;31227;47.986;11.868;2022-08-19T08:26:41;45.02;37.53;56.24;;
45478;Laerm;31227;47.986;11.868;2022-08-19T08:29:08;49.37;39.70;59.84;;
45478;Laerm;31227;47.986;11.868;2022-08-19T08:31:35;45.84;37.52;58.48;;
45478;Laerm;31227;47.986;11.868;2022-08-19T08:34:00;46.90;36.20;61.53;;
45478;Laerm;31227;47.986;11.868;2022-08-19T08:36:26;46.95;37.52;62.07;;
45478;Laerm;31227;47.986;11.868;2022-08-19T08:38:52;49.51;38.95;63.06;;
45478;Laerm;31227;47.986;11.868;2022-08-19T08:41:21;44.58;37.12;53.97;;
45478;Laerm;31227;47.986;11.868;2022-08-19T08:43:49;45.37;37.70;55.91;;
45478;Laerm;31227;47.986;11.868;2022-08-19T08:46:21;46.28;37.88;56.68;;
45478;Laerm;31227;47.986;11.868;2022-08-19T08:48:59;46.80;37.12;60.35;;
45478;Laerm;31227;47.986;11.868;2022-08-19T08:51:28;46.73;37.88;57.00;;
45478;Laerm;31227;47.986;11.868;2022-08-19T08:53:54;47.70;39.46;59.45;;
45478;Laerm;31227;47.986;11.868;2022-08-19T08:56:20;49.43;39.21;63.35;;
45478;Laerm;31227;47.986;11.868;2022-08-19T08:58:51;48.63;39.58;63.00;;
45478;Laerm;31227;47.986;11.868;2022-08-19T09:01:19;47.42;40.53;56.58;;
45478;Laerm;31227;47.986;11.868;2022-08-19T09:03:45;46.23;38.05;55.73;;
45478;Laerm;31227;47.986;11.868;2022-08-19T09:09:02;48.96;37.53;61.53;;
45478;Laerm;31227;47.986;11.868;2022-08-19T09:16:57;49.89;40.98;62.85;;
45478;Laerm;31227;47.986;11.868;2022-08-19T09:19:23;47.73;38.05;58.56;;
45478;Laerm;31227;47.986;11.868;2022-08-19T09:27:05;46.39;37.70;55.65;;
45478;Laerm;31227;47.986;11.868;2022-08-19T09:29:30;47.50;38.52;56.63;;
45478;Laerm;31227;47.986;11.868;2022-08-19T09:31:55;45.47;38.47;56.62;;
45478;Laerm;31227;47.986;11.868;2022-08-19T09:34:21;47.77;37.70;60.19;;
45478;Laerm;31227;47.986;11.868;2022-08-19T09:36:46;46.23;37.17;57.04;;
45478;Laerm;31227;47.986;11.868;2022-08-19T09:39:11;46.66;39.34;55.84;;
45478;Laerm;31227;47.986;11.868;2022-08-19T09:41:37;45.78;38.95;53.17;;
45478;Laerm;31227;47.986;11.868;2022-08-19T09:44:02;46.27;36.69;53.65;;
45478;Laerm;31227;47.986;11.868;2022-08-19T09:46:28;47.40;37.88;60.12;;
45478;Laerm;31227;47.986;11.868;2022-08-19T09:48:53;45.33;37.32;54.14;;
45478;Laerm;31227;47.986;11.868;2022-08-19T09:51:20;46.32;36.45;55.98;;
45478;Laerm;31227;47.986;11.868;2022-08-19T09:53:46;47.47;36.91;56.86;;
45478;Laerm;31227;47.986;11.868;2022-08-19T09:56:12;45.22;36.20;55.70;;
45478;Laerm;31227;47.986;11.868;2022-08-19T09:58:38;47.54;36.45;61.90;;
45478;Laerm;31227;47.986;11.868;2022-08-19T10:01:04;44.98;35.94;53.86;;
45478;Laerm;31227;47.986;11.868;2022-08-19T10:03:30;47.28;39.46;56.99;;
45478;Laerm;31227;47.986;11.868;2022-08-19T10:05:56;45.62;38.37;54.20;;
45478;Laerm;31227;47.986;11.868;2022-08-19T10:08:23;45.58;36.98;59.78;;
45478;Laerm;31227;47.986;11.868;2022-08-19T10:10:50;47.16;36.45;65.10;;
45478;Laerm;31227;47.986;11.868;2022-08-19T10:13:18;47.85;36.45;60.40;;
45478;Laerm;31227;47.986;11.868;2022-08-19T10:15:46;45.29;37.12;54.28;;
45478;Laerm;31227;47.986;11.868;2022-08-19T10:18:12;45.73;36.91;56.82;;
45478;Laerm;31227;47.986;11.868;2022-08-19T10:23:12;45.54;37.70;58.18;;
45478;Laerm;31227;47.986;11.868;2022-08-19T10:25:38;46.53;37.32;56.87;;
45478;Laerm;31227;47.986;11.868;2022-08-19T10:28:04;44.25;36.45;52.54;;
45478;Laerm;31227;47.986;11.868;2022-08-19T10:30:31;46.20;38.37;58.91;;
45478;Laerm;31227;47.986;11.868;2022-08-19T10:32:56;44.65;37.70;54.29;;
45478;Laerm;31227;47.986;11.868;2022-08-19T10:35:21;46.25;36.91;57.08;;
45478;Laerm;31227;47.986;11.868;2022-08-19T10:37:47;46.37;36.91;54.61;;
45478;Laerm;31227;47.986;11.868;2022-08-19T10:40:12;45.57;35.66;58.56;;
45478;Laerm;31227;47.986;11.868;2022-08-19T10:42:37;47.30;37.32;59.74;;
45478;Laerm;31227;47.986;11.868;2022-08-19T10:45:04;45.10;36.20;54.45;;
45478;Laerm;31227;47.986;11.868;2022-08-19T10:47:31;45.45;37.12;54.19;;
45478;Laerm;31227;47.986;11.868;2022-08-19T10:49:56;45.27;37.70;56.13;;
45478;Laerm;31227;47.986;11.868;2022-08-19T10:52:41;46.04;36.45;59.98;;
45478;Laerm;31227;47.986;11.868;2022-08-19T10:55:07;45.75;36.20;55.99;;
45478;Laerm;31227;47.986;11.868;2022-08-19T10:57:51;45.27;36.69;62.75;;
45478;Laerm;31227;47.986;11.868;2022-08-19T11:00:18;45.44;36.69;59.14;;
45478;Laerm;31227;47.986;11.868;2022-08-19T11:02:43;45.06;36.69;59.27;;
45478;Laerm;31227;47.986;11.868;2022-08-19T11:05:09;44.80;35.94;54.19;;
45478;Laerm;31227;47.986;11.868;2022-08-19T11:07:40;47.12;37.12;65.56;;
45478;Laerm;31227;47.986;11.868;2022-08-19T11:10:06;45.82;36.69;64.23;;
45478;Laerm;31227;47.986;11.868;2022-08-19T11:12:32;45.92;36.20;58.02;;
45478;Laerm;31227;47.986;11.868;2022-08-19T11:14:58;46.78;37.12;72.65;;
45478;Laerm;31227;47.986;11.868;2022-08-19T11:17:23;44.51;37.70;52.69;;
45478;Laerm;31227;47.986;11.868;2022-08-19T11:22:23;45.48;37.52;58.38;;
45478;Laerm;31227;47.986;11.868;2022-08-19T11:24:48;45.96;36.20;57.34;;
45478;Laerm;31227;47.986;11.868;2022-08-19T11:27:14;44.97;36.20;53.90;;
45478;Laerm;31227;47.986;11.868;2022-08-19T11:29:39;45.81;38.05;55.59;;
45478;Laerm;31227;47.986;11.868;2022-08-19T11:32:08;44.44;37.32;55.58;;
45478;Laerm;31227;47.986;11.868;2022-08-19T11:34:34;44.46;36.91;55.15;;
45478;Laerm;31227;47.986;11.868;2022-08-19T11:37:00;47.03;36.45;59.54;;
45478;Laerm;31227;47.986;11.868;2022-08-19T11:39:26;48.21;36.20;64.11;;
45478;Laerm;31227;47.986;11.868;2022-08-19T11:41:52;43.77;36.91;52.92;;
45478;Laerm;31227;47.986;11.868;2022-08-19T11:44:17;45.42;36.20;53.98;;
45478;Laerm;31227;47.986;11.868;2022-08-19T11:46:43;46.45;37.70;56.82;;
45478;Laerm;31227;47.986;11.868;2022-08-19T11:49:11;45.66;37.12;57.89;;
45478;Laerm;31227;47.986;11.868;2022-08-19T11:51:36;45.68;36.20;58.61;;
45478;Laerm;31227;47.986;11.868;2022-08-19T11:54:01;46.38;37.52;61.20;;
45478;Laerm;31227;47.986;11.868;2022-08-19T11:56:27;45.13;38.05;55.14;;
45478;Laerm;31227;47.986;11.868;2022-08-19T11:58:52;45.47;37.70;53.95;;
45478;Laerm;31227;47.986;11.868;2022-08-19T12:01:19;46.03;37.12;58.37;;
45478;Laerm;31227;47.986;11.868;2022-08-19T12:03:46;45.56;35.94;56.05;;
45478;Laerm;31227;47.986;11.868;2022-08-19T12:06:13;46.00;38.81;53.64;;
45478;Laerm;31227;47.986;11.868;2022-08-19T12:08:39;45.42;36.69;52.91;;
45478;Laerm;31227;47.986;11.868;2022-08-19T12:11:05;44.73;37.12;52.42;;
45478;Laerm;31227;47.986;11.868;2022-08-19T12:13:32;45.51;36.91;58.20;;
45478;Laerm;31227;47.986;11.868;2022-08-19T12:15:58;46.20;35.94;56.25;;
45478;Laerm;31227;47.986;11.868;2022-08-19T12:18:24;48.12;37.12;67.51;;
45478;Laerm;31227;47.986;11.868;2022-08-19T13:00:04;46.39;36.69;62.76;;
45478;Laerm;31227;47.986;11.868;2022-08-19T13:02:33;46.33;37.53;59.22;;
45478;Laerm;31227;47.986;11.868;2022-08-19T13:05:00;45.33;36.91;56.60;;
45478;Laerm;31227;47.986;11.868;2022-08-19T13:07:25;44.72;36.20;57.17;;
45478;Laerm;31227;47.986;11.868;2022-08-19T13:09:51;45.47;36.91;56.78;;
45478;Laerm;31227;47.986;11.868;2022-08-19T13:12:16;45.74;36.91;60.37;;
45478;Laerm;31227;47.986;11.868;2022-08-19T13:14:42;46.16;35.66;60.95;;
45478;Laerm;31227;47.986;11.868;2022-08-19T13:17:07;46.49;38.05;59.32;;
45478;Laerm;31227;47.986;11.868;2022-08-19T13:19:35;48.37;36.91;67.80;;
45478;Laerm;31227;47.986;11.868;2022-08-19T13:32:21;47.21;37.88;64.63;;
45478;Laerm;31227;47.986;11.868;2022-08-19T13:35:05;44.36;37.32;51.99;;
45478;Laerm;31227;47.986;11.868;2022-08-19T13:37:30;46.97;35.94;66.91;;
45478;Laerm;31227;47.986;11.868;2022-08-19T13:40:19;45.61;36.20;57.57;;
45478;Laerm;31227;47.986;11.868;2022-08-19T13:42:48;46.49;38.67;58.62;;
45478;Laerm;31227;47.986;11.868;2022-08-19T13:45:15;47.37;37.70;67.26;;
45478;Laerm;31227;47.986;11.868;2022-08-19T13:47:41;46.33;36.91;63.18;;
45478;Laerm;31227;47.986;11.868;2022-08-19T13:50:13;45.40;36.69;63.09;;
45478;Laerm;31227;47.986;11.868;2022-08-19T13:52:40;47.44;38.87;62.95;;
45478;Laerm;31227;47.986;11.868;2022-08-19T13:55:07;46.34;37.52;61.61;;
45478;Laerm;31227;47.986;11.868;2022-08-19T13:57:32;45.37;35.66;56.22;;
45478;Laerm;31227;47.986;11.868;2022-08-19T13:59:58;46.99;39.46;59.64;;
45478;Laerm;31227;47.986;11.868;2022-08-19T14:02:24;46.09;38.52;57.89;;
45478;Laerm;31227;47.986;11.868;2022-08-19T14:04:49;45.46;37.88;63.85;;
45478;Laerm;31227;47.986;11.868;2022-08-19T14:07:14;46.90;38.05;63.79;;
45478;Laerm;31227;47.986;11.868;2022-08-19T14:09:40;44.35;37.70;56.47;;
45478;Laerm;31227;47.986;11.868;2022-08-19T14:12:05;45.10;37.32;55.70;;
45478;Laerm;31227;47.986;11.868;2022-08-19T14:14:31;45.88;37.52;57.51;;
45478;Laerm;31227;47.986;11.868;2022-08-19T14:16:56;44.94;37.32;61.27;;
45478;Laerm;31227;47.986;11.868;2022-08-19T14:19:21;46.83;36.91;61.01;;
45478;Laerm;31227;47.986;11.868;2022-08-19T14:24:22;45.49;38.05;54.68;;
45478;Laerm;31227;47.986;11.868;2022-08-19T14:26:47;44.64;36.45;53.97;;
45478;Laerm;31227;47.986;11.868;2022-08-19T14:29:12;44.73;35.94;63.56;;
45478;Laerm;31227;47.986;11.868;2022-08-19T14:31:38;46.35;35.04;62.49;;
45478;Laerm;31227;47.986;11.868;2022-08-19T14:34:07;44.16;35.66;59.18;;
45478;Laerm;31227;47.986;11.868;2022-08-19T14:36:32;44.70;37.88;57.99;;
45478;Laerm;31227;47.986;11.868;2022-08-19T14:38:59;45.03;36.69;60.26;;
45478;Laerm;31227;47.986;11.868;2022-08-19T14:41:25;47.68;37.32;72.33;;
45478;Laerm;31227;47.986;11.868;2022-08-19T14:43:51;46.08;38.81;54.34;;
45478;Laerm;31227;47.986;11.868;2022-08-19T14:46:18;46.13;36.20;61.64;;
45478;Laerm;31227;47.986;11.868;2022-08-19T14:48:45;49.56;37.88;68.67;;
45478;Laerm;31227;47.986;11.868;2022-08-19T14:51:10;55.22;37.70;74.99;;
45478;Laerm;31227;47.986;11.868;2022-08-19T14:53:36;47.12;39.58;68.11;;
45478;Laerm;31227;47.986;11.868;2022-08-19T14:56:06;48.35;38.05;70.49;;
45478;Laerm;31227;47.986;11.868;2022-08-19T14:58:32;46.37;37.70;62.52;;
45478;Laerm;31227;47.986;11.868;2022-08-19T15:01:00;46.56;38.21;57.94;;
45478;Laerm;31227;47.986;11.868;2022-08-19T15:03:25;45.76;38.37;54.25;;
45478;Laerm;31227;47.986;11.868;2022-08-19T15:05:51;45.60;37.52;53.37;;
45478;Laerm;31227;47.986;11.868;2022-08-19T15:08:16;46.83;39.08;56.57;;
45478;Laerm;31227;47.986;11.868;2022-08-19T15:10:41;45.88;38.05;64.54;;
45478;Laerm;31227;47.986;11.868;2022-08-19T15:13:07;48.58;38.05;70.07;;
45478;Laerm;31227;47.986;11.868;2022-08-19T15:15:32;44.99;37.32;57.74;;
45478;Laerm;31227;47.986;11.868;2022-08-19T15:17:57;45.06;38.18;59.13;;
45478;Laerm;31227;47.986;11.868;2022-08-19T16:30:15;45.29;36.45;64.26;;
45478;Laerm;31227;47.986;11.868;2022-08-19T16:32:43;44.25;36.91;53.49;;
45478;Laerm;31227;47.986;11.868;2022-08-19T16:35:09;44.77;36.91;60.28;;
45478;Laerm;31227;47.986;11.868;2022-08-19T16:37:35;46.09;36.91;59.78;;
45478;Laerm;31227;47.986;11.868;2022-08-19T16:40:00;46.76;37.88;65.37;;
45478;Laerm;31227;47.986;11.868;2022-08-19T16:42:25;44.43;36.20;53.90;;
45478;Laerm;31227;47.986;11.868;2022-08-19T16:44:50;44.72;37.70;58.02;;
45478;Laerm;31227;47.986;11.868;2022-08-19T16:47:16;43.97;35.94;61.26;;
45478;Laerm;31227;47.986;11.868;2022-08-19T16:49:42;46.35;36.91;56.59;;
45478;Laerm;31227;47.986;11.868;2022-08-19T16:52:07;45.11;35.36;54.46;;
45478;Laerm;31227;47.986;11.868;2022-08-19T16:54:33;43.95;35.01;57.69;;
45478;Laerm;31227;47.986;11.868;2022-08-19T16:56:59;44.12;35.36;52.88;;
45478;Laerm;31227;47.986;11.868;2022-08-19T16:59:24;45.00;36.91;56.76;;
45478;Laerm;31227;47.986;11.868;2022-08-19T17:01:50;44.10;35.04;62.21;;
45478;Laerm;31227;47.986;11.868;2022-08-19T17:04:16;44.93;36.20;65.16;;
45478;Laerm;31227;47.986;11.868;2022-08-19T17:06:41;44.97;36.69;55.30;;
45478;Laerm;31227;47.986;11.868;2022-08-19T17:09:07;41.88;35.66;52.45;;
45478;Laerm;31227;47.986;11.868;2022-08-19T17:11:32;44.49;36.20;57.39;;
45478;Laerm;31227;47.986;11.868;2022-08-19T17:13:58;47.36;36.77;69.34;;
45478;Laerm;31227;47.986;11.868;2022-08-19T17:16:25;43.69;34.31;52.49;;
45478;Laerm;31227;47.986;11.868;2022-08-19T17:18:54;42.59;34.69;52.62;;
45478;Laerm;31227;47.986;11.868;2022-08-19T17:21:20;44.13;35.04;52.34;;
45478;Laerm;31227;47.986;11.868;2022-08-19T17:23:46;44.72;34.69;65.12;;
45478;Laerm;31227;47.986;11.868;2022-08-19T17:26:12;45.29;36.20;59.73;;
45478;Laerm;31227;47.986;11.868;2022-08-19T17:28:38;43.69;35.36;57.73;;
45478;Laerm;31227;47.986;11.868;2022-08-19T17:31:03;45.91;37.12;70.18;;
45478;Laerm;31227;47.986;11.868;2022-08-19T17:33:30;44.23;36.45;56.16;;
45478;Laerm;31227;47.986;11.868;2022-08-19T17:35:55;43.76;35.36;54.07;;
45478;Laerm;31227;47.986;11.868;2022-08-19T17:38:20;44.59;35.36;68.63;;
45478;Laerm;31227;47.986;11.868;2022-08-19T17:40:48;43.57;35.59;52.68;;
45478;Laerm;31227;47.986;11.868;2022-08-19T17:43:13;44.00;35.66;60.11;;
45478;Laerm;31227;47.986;11.868;2022-08-19T17:45:40;45.62;34.31;63.00;;
45478;Laerm;31227;47.986;11.868;2022-08-19T17:48:05;44.13;34.31;55.22;;
45478;Laerm;31227;47.986;11.868;2022-08-19T17:50:31;42.99;35.04;54.02;;
45478;Laerm;31227;47.986;11.868;2022-08-19T17:52:56;44.13;36.69;54.95;;
45478;Laerm;31227;47.986;11.868;2022-08-19T17:55:22;44.37;37.32;57.52;;
45478;Laerm;31227;47.986;11.868;2022-08-19T17:57:48;43.81;36.20;60.00;;
45478;Laerm;31227;47.986;11.868;2022-08-19T18:00:14;43.50;34.69;56.39;;
45478;Laerm;31227;47.986;11.868;2022-08-19T18:02:44;42.75;35.01;52.98;;
45478;Laerm;31227;47.986;11.868;2022-08-19T18:05:09;43.72;35.36;54.27;;
45478;Laerm;31227;47.986;11.868;2022-08-19T18:07:34;44.45;35.04;57.57;;
45478;Laerm;31227;47.986;11.868;2022-08-19T18:10:00;44.99;37.12;61.40;;
45478;Laerm;31227;47.986;11.868;2022-08-19T18:12:25;41.49;34.69;59.78;;
45478;Laerm;31227;47.986;11.868;2022-08-19T18:14:51;42.51;35.36;51.45;;
45478;Laerm;31227;47.986;11.868;2022-08-19T18:17:16;43.69;35.36;57.20;;
45478;Laerm;31227;47.986;11.868;2022-08-19T18:44:39;45.33;36.69;58.24;;
45478;Laerm;31227;47.986;11.868;2022-08-19T18:47:23;46.94;37.52;59.52;;
45478;Laerm;31227;47.986;11.868;2022-08-19T18:50:07;46.90;36.45;60.74;;
45478;Laerm;31227;47.986;11.868;2022-08-19T18:52:34;48.29;36.20;60.35;;
45478;Laerm;31227;47.986;11.868;2022-08-19T18:55:00;45.82;36.20;65.81;;
45478;Laerm;31227;47.986;11.868;2022-08-19T18:57:25;47.63;35.94;62.88;;
45478;Laerm;31227;47.986;11.868;2022-08-19T18:59:50;43.71;33.44;54.51;;
45478;Laerm;31227;47.986;11.868;2022-08-19T19:02:16;55.35;36.69;90.80;;
45478;Laerm;31227;47.986;11.868;2022-08-19T19:04:42;46.56;37.32;57.30;;
45478;Laerm;31227;47.986;11.868;2022-08-19T19:07:08;48.90;32.93;81.58;;
45478;Laerm;31227;47.986;11.868;2022-08-19T19:09:33;46.41;36.20;58.69;;